Time;durP1;ratioP1;P1;durP2;ratioP2;P2;SDS_P1;SDS_P2;PMS_P1;PMS_P2;Temp;Humidity;BMP_temperature;BMP_pressure;BME280_temperature;BME280_humidity;BME280_pressure;Samples;Min_cycle;Max_cycle;Signal;HPM_P1;HPM_P2
2022/08/11 00:01:25;;;;;;;1.53;1.17;;;;;;;22.12;47.05;100674.44;4981690;28;20489;-50
2022/08/11 00:04:02;;;;;;;1.03;0.90;;;;;;;22.04;47.81;100684.88;4981984;28;20466;-49
2022/08/11 00:06:32;;;;;;;2.90;1.00;;;;;;;21.75;48.24;100687.78;4985547;28;20464;-50
2022/08/11 00:09:00;;;;;;;1.03;0.93;;;;;;;21.79;47.58;100685.72;4987217;28;20465;-49
2022/08/11 00:11:38;;;;;;;9.90;1.70;;;;;;;21.78;48.30;100690.25;4985413;28;20451;-49
2022/08/11 00:14:16;;;;;;;1.33;1.23;;;;;;;21.53;48.94;100690.22;4981233;28;20472;-49
2022/08/11 00:16:51;;;;;;;0.90;0.87;;;;;;;21.37;49.29;100686.78;4981508;28;20455;-49
2022/08/11 00:19:28;;;;;;;1.67;1.57;;;;;;;21.21;49.51;100687.78;4986116;28;21022;-49
2022/08/11 00:22:22;;;;;;;1.40;1.30;;;;;;;21.02;50.34;100692.69;4987776;28;20506;-49
2022/08/11 00:24:49;;;;;;;1.57;1.47;;;;;;;21.03;50.40;100691.72;4988081;28;20485;-49
2022/08/11 00:27:19;;;;;;;1.03;0.90;;;;;;;20.96;50.52;100687.66;4982336;28;20982;-48
2022/08/11 00:29:53;;;;;;;1.60;1.50;;;;;;;20.80;51.27;100695.03;4993016;28;20449;-48
2022/08/11 00:32:20;;;;;;;1.30;1.00;;;;;;;21.10;49.78;100697.56;4983718;28;20445;-49
2022/08/11 00:34:47;;;;;;;1.63;1.53;;;;;;;20.88;51.17;100696.28;4980826;28;20478;-50
2022/08/11 00:37:22;;;;;;;0.97;0.93;;;;;;;20.80;51.38;100692.34;4985309;28;20462;-48
2022/08/11 00:39:51;;;;;;;5.70;1.40;;;;;;;20.45;52.19;100695.47;4988030;28;20468;-48
2022/08/11 00:42:56;;;;;;;1.87;1.47;;;;;;;20.43;52.09;100700.09;4985541;28;20588;-49
2022/08/11 00:45:39;;;;;;;1.50;1.20;;;;;;;20.26;53.22;100692.13;4984565;28;20476;-49
2022/08/11 00:48:32;;;;;;;2.33;1.17;;;;;;;20.03;53.08;100697.16;4987927;28;20460;-48
2022/08/11 00:51:23;;;;;;;5.40;2.47;;;;;;;20.15;53.15;100691.94;5002871;28;20445;-48
2022/08/11 00:54:24;;;;;;;1.33;1.23;;;;;;;19.96;53.55;100693.06;4981637;28;20471;-48
2022/08/11 00:57:02;;;;;;;3.53;1.30;;;;;;;19.66;53.56;100687.69;4984335;28;20457;-48
2022/08/11 01:00:11;;;;;;;4.60;1.37;;;;;;;19.79;53.50;100696.78;4982342;28;20453;-49
2022/08/11 01:02:46;;;;;;;4.00;1.70;;;;;;;19.63;54.18;100695.97;4980799;28;20499;-48
2022/08/11 01:05:33;;;;;;;6.13;1.47;;;;;;;19.70;53.81;100701.88;4981261;28;20470;-48
2022/08/11 01:08:19;;;;;;;2.50;2.30;;;;;;;19.53;54.31;100692.06;4982834;28;20473;-50
2022/08/11 01:10:58;;;;;;;1.00;0.87;;;;;;;19.52;54.62;100703.81;4980305;28;20951;-49
2022/08/11 01:13:45;;;;;;;2.13;1.80;;;;;;;19.44;54.75;100698.84;4980472;28;20668;-49
2022/08/11 01:16:30;;;;;;;1.40;1.30;;;;;;;19.24;55.61;100704.53;4982905;28;20449;-48
2022/08/11 01:19:03;;;;;;;2.50;1.53;;;;;;;19.34;55.37;100705.75;4980178;28;20996;-48
2022/08/11 01:21:58;;;;;;;1.50;1.40;;;;;;;19.48;55.54;100710.34;4980387;28;20496;-49
2022/08/11 01:24:56;;;;;;;2.70;2.50;;;;;;;19.23;56.27;100711.78;4983902;28;20477;-48
2022/08/11 01:27:39;;;;;;;1.33;1.20;;;;;;;19.00;57.02;100709.50;4993084;28;20835;-48
2022/08/11 01:30:33;;;;;;;4.40;1.50;;;;;;;19.12;56.37;100700.72;4990646;28;20465;-48
2022/08/11 01:33:37;;;;;;;1.70;1.60;;;;;;;18.91;57.12;100707.31;4986564;28;20493;-48
2022/08/11 01:36:29;;;;;;;15.77;1.40;;;;;;;18.63;57.83;100708.88;4986542;28;20453;-49
2022/08/11 01:39:20;;;;;;;11.10;1.30;;;;;;;18.71;57.90;100703.06;4983892;28;20525;-49
2022/08/11 01:45:48;;;;;;;0.80;0.80;;;;;;;18.74;57.45;100704.72;4981113;28;20481;-48
2022/08/11 01:48:25;;;;;;;0.97;0.90;;;;;;;18.85;57.70;100707.69;4980209;28;20453;-48
2022/08/11 01:51:04;;;;;;;1.50;1.10;;;;;;;18.63;57.93;100711.56;5005802;28;20929;-49
2022/08/11 01:53:58;;;;;;;1.50;1.40;;;;;;;18.47;58.66;100707.94;4983547;28;20476;-48
2022/08/11 01:56:48;;;;;;;1.33;1.10;;;;;;;18.53;58.91;100717.53;4980259;28;20467;-48
2022/08/11 01:59:24;;;;;;;2.27;1.70;;;;;;;18.56;58.61;100706.56;4986579;28;20517;-49
2022/08/11 02:02:46;;;;;;;0.80;0.73;;;;;;;18.36;59.36;100715.72;4984920;28;20814;-49
2022/08/11 02:05:59;;;;;;;1.27;1.07;;;;;;;18.30;58.96;100724.13;4980687;28;20477;-48
2022/08/11 02:08:54;;;;;;;1.90;1.80;;;;;;;18.25;59.19;100718.16;4985254;28;20445;-48
2022/08/11 02:11:29;;;;;;;2.37;2.17;;;;;;;18.14;59.56;100716.00;4983549;28;20446;-49
2022/08/11 02:14:21;;;;;;;2.03;1.50;;;;;;;18.08;60.28;100720.84;4986233;28;20829;-48
2022/08/11 02:17:00;;;;;;;7.23;1.67;;;;;;;17.76;61.50;100720.69;4986266;28;20990;-49
2022/08/11 02:26:07;;;;;;;0.90;0.77;;;;;;;17.44;61.99;100725.88;4982857;28;20465;-48
2022/08/11 02:29:02;;;;;;;1.53;1.30;;;;;;;17.68;61.20;100730.94;4993128;28;20449;-48
2022/08/11 02:34:58;;;;;;;10.03;0.93;;;;;;;17.77;60.94;100719.75;4983025;28;20478;-48
2022/08/11 02:37:31;;;;;;;1.30;1.20;;;;;;;17.43;62.56;100720.56;4985674;28;21013;-48
2022/08/11 02:39:58;;;;;;;1.80;1.70;;;;;;;17.33;62.74;100717.47;4989581;28;20453;-49
2022/08/11 02:42:45;;;;;;;0.93;0.80;;;;;;;17.48;62.22;100716.69;4988358;28;20493;-49
2022/08/11 02:45:27;;;;;;;9.10;1.10;;;;;;;17.40;62.52;100715.31;4988263;28;20911;-49
2022/08/11 02:51:07;;;;;;;2.10;0.90;;;;;;;17.40;62.81;100718.88;5004273;28;20448;-49
2022/08/11 02:53:42;;;;;;;1.67;1.57;;;;;;;17.39;63.14;100716.28;4986047;28;20477;-48
2022/08/11 02:56:44;;;;;;;0.87;0.87;;;;;;;17.22;63.83;100718.94;4993682;28;20489;-48
2022/08/11 02:59:52;;;;;;;1.30;1.20;;;;;;;17.17;63.72;100716.47;4989286;28;20904;-48
2022/08/11 03:02:30;;;;;;;1.57;1.27;;;;;;;17.12;64.33;100719.38;4987699;28;20492;-48
2022/08/11 03:05:19;;;;;;;1.00;0.90;;;;;;;16.90;64.83;100731.25;4985213;28;20505;-48
2022/08/11 03:08:10;;;;;;;2.50;1.10;;;;;;;16.85;64.96;100718.88;4983534;28;20556;-48
2022/08/11 03:16:50;;;;;;;1.33;1.20;;;;;;;16.99;64.46;100720.03;4982847;28;20450;-49
2022/08/11 03:19:39;;;;;;;1.13;1.03;;;;;;;16.78;65.42;100725.50;4984188;28;20461;-48
2022/08/11 03:22:37;;;;;;;2.10;1.17;;;;;;;16.68;66.18;100724.19;4982244;28;20495;-48
2022/08/11 03:25:30;;;;;;;2.07;1.50;;;;;;;16.59;66.34;100722.78;4982257;28;20474;-49
2022/08/11 03:28:08;;;;;;;1.03;0.93;;;;;;;16.62;66.26;100727.13;4995411;28;20460;-48
2022/08/11 03:30:56;;;;;;;1.27;1.20;;;;;;;16.52;66.95;100723.13;4988414;28;20449;-48
2022/08/11 03:36:13;;;;;;;29.77;1.40;;;;;;;16.44;66.94;100725.28;4988699;28;20449;-48
2022/08/11 03:38:53;;;;;;;10.23;2.83;;;;;;;16.24;67.78;100728.88;4982601;28;20449;-48
2022/08/11 03:41:43;;;;;;;6.10;2.70;;;;;;;16.21;68.39;100721.84;4982642;28;20549;-48
2022/08/11 03:44:49;;;;;;;0.93;0.83;;;;;;;16.18;68.59;100726.50;4981803;28;21043;-48
2022/08/11 03:47:57;;;;;;;2.90;1.70;;;;;;;16.27;68.60;100726.94;4984261;28;20450;-48
2022/08/11 03:50:33;;;;;;;1.67;1.57;;;;;;;16.37;67.85;100723.84;4996899;28;20444;-48
2022/08/11 03:53:09;;;;;;;1.23;1.13;;;;;;;16.48;68.64;100724.22;4990396;28;20460;-49
2022/08/11 03:56:06;;;;;;;5.13;2.77;;;;;;;16.38;67.88;100722.91;4988446;28;20543;-49
2022/08/11 03:58:48;;;;;;;1.00;0.90;;;;;;;16.11;68.83;100728.56;4992476;28;20809;-48
2022/08/11 04:01:51;;;;;;;1.17;1.07;;;;;;;16.19;68.81;100731.78;4981665;28;20461;-47
2022/08/11 04:04:37;;;;;;;1.67;1.57;;;;;;;16.18;68.92;100731.84;4981550;28;20473;-48
2022/08/11 04:07:22;;;;;;;1.60;1.50;;;;;;;15.95;69.87;100722.13;4981468;28;20505;-48
2022/08/11 04:10:22;;;;;;;7.53;2.90;;;;;;;16.32;68.43;100726.75;4984613;28;20450;-47
2022/08/11 04:13:08;;;;;;;1.40;1.30;;;;;;;16.11;68.95;100733.06;4982074;28;20449;-47
2022/08/11 04:16:02;;;;;;;4.50;1.33;;;;;;;16.19;68.89;100723.72;4981436;28;20460;-48
2022/08/11 04:18:50;;;;;;;2.00;1.70;;;;;;;15.94;69.80;100729.31;4981354;28;20986;-49
2022/08/11 04:21:35;;;;;;;1.13;1.03;;;;;;;15.96;69.56;100730.09;4983090;28;20450;-48
2022/08/11 04:24:21;;;;;;;1.43;0.90;;;;;;;16.07;70.35;100734.13;4982032;28;20481;-48
2022/08/11 04:27:22;;;;;;;1.90;1.80;;;;;;;16.05;69.66;100725.28;4981048;28;20492;-47
2022/08/11 04:30:16;;;;;;;1.23;1.13;;;;;;;16.41;68.59;100720.06;4991210;28;21027;-47
2022/08/11 04:32:58;;;;;;;1.00;0.90;;;;;;;16.44;67.77;100718.09;4986899;28;20446;-48
2022/08/11 04:35:49;;;;;;;2.90;1.30;;;;;;;16.36;68.99;100725.66;4986636;28;20458;-49
2022/08/11 04:38:52;;;;;;;2.13;2.03;;;;;;;16.17;68.85;100728.31;4987618;28;20882;-48
2022/08/11 04:44:46;;;;;;;1.43;1.33;;;;;;;16.10;69.53;100729.50;4987216;28;20498;-48
2022/08/11 05:03:51;;;;;;;1.97;1.83;;;;;;;18.68;61.13;100737.38;4984369;28;20490;-49
2022/08/11 05:07:08;;;;;;;1.30;1.20;;;;;;;19.02;60.35;100745.31;4984070;28;20953;-49
2022/08/11 05:09:56;;;;;;;1.50;1.40;;;;;;;19.24;59.23;100743.16;4985128;28;20453;-48
2022/08/11 05:27:09;;;;;;;1.30;1.20;;;;;;;19.42;58.45;100743.91;4977609;28;20451;-49
2022/08/11 05:36:35;;;;;;;4.03;1.87;;;;;;;21.07;53.55;100754.56;4988103;28;20477;-49
2022/08/11 05:56:17;;;;;;;2.07;1.87;;;;;;;22.11;50.68;100751.22;4985017;28;20453;-51
2022/08/11 05:58:48;;;;;;;5.70;1.97;;;;;;;22.21;50.43;100755.03;4980756;28;20533;-50
2022/08/11 06:01:26;;;;;;;4.13;2.30;;;;;;;22.58;50.15;100761.44;4979935;28;20464;-50
2022/08/11 06:04:14;;;;;;;7.57;2.70;;;;;;;22.26;50.70;100755.56;4982947;28;20493;-49
2022/08/11 06:06:53;;;;;;;4.43;2.30;;;;;;;22.39;50.34;100755.59;4988628;28;20454;-50
2022/08/11 06:09:32;;;;;;;4.93;2.60;;;;;;;22.52;49.38;100753.75;4990932;28;20789;-50
2022/08/11 06:12:02;;;;;;;2.60;2.40;;;;;;;22.85;49.58;100755.91;4993079;28;20449;-49
2022/08/11 06:14:31;;;;;;;17.93;2.47;;;;;;;22.79;49.58;100755.47;4988062;28;20505;-51
2022/08/11 06:17:00;;;;;;;25.83;2.27;;;;;;;22.62;50.51;100753.97;4985953;28;20812;-49
2022/08/11 06:19:46;;;;;;;4.57;2.07;;;;;;;22.62;50.94;100760.25;4990321;28;20454;-50
2022/08/11 06:22:19;;;;;;;4.80;2.60;;;;;;;22.60;51.20;100764.03;4992413;28;20490;-50
2022/08/11 06:24:54;;;;;;;2.23;2.07;;;;;;;22.56;51.38;100771.50;4988499;28;20486;-53
2022/08/11 06:27:25;;;;;;;37.30;2.83;;;;;;;22.72;51.50;100766.72;4987648;28;20441;-52
2022/08/11 06:29:54;;;;;;;1.90;1.57;;;;;;;22.70;50.45;100770.53;4986109;28;20461;-52
2022/08/11 06:32:34;;;;;;;1.93;1.83;;;;;;;22.80;49.81;100763.47;4991073;28;20469;-52
2022/08/11 06:35:13;;;;;;;3.93;2.13;;;;;;;22.98;49.34;100759.47;4992685;28;20545;-52
2022/08/11 06:38:02;;;;;;;13.07;2.10;;;;;;;22.96;49.00;100761.44;4992056;28;20449;-52
2022/08/11 06:41:29;;;;;;;2.23;1.70;;;;;;;22.96;49.21;100761.44;4989998;28;20495;-52
2022/08/11 06:44:13;;;;;;;4.83;1.97;;;;;;;23.23;48.76;100761.25;4994097;28;20503;-52
2022/08/11 06:46:42;;;;;;;15.67;2.23;;;;;;;23.44;48.61;100761.53;4985103;28;20453;-52
2022/08/11 06:52:00;;;;;;;10.80;2.00;;;;;;;23.54;48.71;100762.53;5007057;28;20460;-52
2022/08/11 06:54:31;;;;;;;1.50;1.40;;;;;;;23.61;49.05;100760.28;4985689;28;20458;-53
2022/08/11 07:02:52;;;;;;;2.10;1.80;;;;;;;24.37;47.38;100764.38;4992247;28;20524;-53
2022/08/11 07:05:37;;;;;;;2.30;2.20;;;;;;;24.18;46.86;100754.06;4992342;28;20483;-52
2022/08/11 07:15:40;;;;;;;4.33;1.97;;;;;;;25.09;42.47;100752.25;4986521;28;20453;-52
2022/08/11 07:17:28;;;;;;;8.40;1.23;;;;;;;25.41;41.64;100751.44;4982562;28;20453;-52
2022/08/11 07:31:45;;;;;;;1.83;1.50;;;;;;;25.54;40.88;100738.53;4983889;28;20437;-53
2022/08/11 07:34:31;;;;;;;4.47;1.63;;;;;;;25.73;41.01;100735.13;4981133;28;20475;-52
2022/08/11 07:37:02;;;;;;;4.17;1.57;;;;;;;25.83;41.21;100736.09;4982527;28;20468;-53
2022/08/11 07:39:34;;;;;;;1.60;1.20;;;;;;;25.87;40.88;100728.50;4986122;28;20437;-53
2022/08/11 07:42:07;;;;;;;4.30;2.73;;;;;;;25.63;41.21;100732.31;4983390;28;20442;-53
2022/08/11 07:48:10;;;;;;;1.43;1.33;;;;;;;26.10;40.82;100726.53;4986089;28;20528;-53
2022/08/11 07:52:59;;;;;;;1.67;1.57;;;;;;;26.24;40.12;100718.03;4986041;28;20441;-53
2022/08/11 07:55:26;;;;;;;1.47;1.37;;;;;;;26.20;40.63;100717.44;4984590;28;20452;-53
2022/08/11 08:18:04;;;;;;;1.70;1.60;;;;;;;26.86;39.32;100731.59;4985220;28;20452;-53
2022/08/11 08:20:53;;;;;;;2.00;1.50;;;;;;;26.73;39.13;100727.38;4981900;28;20453;-53
2022/08/11 08:23:34;;;;;;;0.90;0.90;;;;;;;26.86;39.15;100725.25;4980489;28;20537;-53
2022/08/11 08:26:04;;;;;;;1.47;1.13;;;;;;;26.85;38.84;100726.25;4985115;28;20466;-52
2022/08/11 08:28:45;;;;;;;1.43;1.33;;;;;;;27.31;38.39;100722.97;4989318;28;20449;-52
2022/08/11 08:31:11;;;;;;;10.90;1.63;;;;;;;27.38;38.55;100717.81;4983283;28;20489;-53
2022/08/11 08:33:40;;;;;;;3.10;1.57;;;;;;;27.23;38.24;100731.00;4987619;28;20467;-52
2022/08/11 08:36:11;;;;;;;4.77;1.47;;;;;;;27.36;38.43;100719.81;4986371;28;20943;-53
2022/08/11 08:38:51;;;;;;;1.10;1.00;;;;;;;27.74;37.48;100722.63;4981248;28;20445;-52
2022/08/11 08:41:27;;;;;;;36.37;1.67;;;;;;;27.50;37.63;100724.88;4982924;28;20516;-52
2022/08/11 08:44:02;;;;;;;1.10;1.00;;;;;;;27.41;38.38;100721.13;4984099;28;20503;-52
2022/08/11 08:46:57;;;;;;;1.67;1.20;;;;;;;27.25;38.27;100714.47;4985906;28;20446;-53
2022/08/11 08:49:33;;;;;;;1.13;0.87;;;;;;;27.22;37.88;100714.75;4985878;28;20461;-52
2022/08/11 08:52:11;;;;;;;1.10;1.00;;;;;;;27.61;37.79;100711.06;4996554;28;20860;-52
2022/08/11 08:55:03;;;;;;;1.47;1.37;;;;;;;27.66;37.98;100718.88;4983280;28;20470;-53
2022/08/11 08:57:32;;;;;;;1.20;1.10;;;;;;;27.60;38.13;100720.28;4991735;28;20456;-52
2022/08/11 09:00:07;;;;;;;5.80;2.80;;;;;;;27.98;37.49;100721.31;4987617;28;20446;-53
2022/08/11 09:02:39;;;;;;;2.80;1.10;;;;;;;27.96;37.47;100724.22;4980546;28;20446;-53
2022/08/11 09:05:08;;;;;;;2.37;1.10;;;;;;;27.67;37.87;100723.31;4982508;28;20474;-53
2022/08/11 09:07:36;;;;;;;1.03;0.80;;;;;;;28.01;37.39;100716.41;4987784;28;20476;-53
2022/08/11 09:10:09;;;;;;;2.13;1.93;;;;;;;28.13;36.86;100711.66;4987159;28;20446;-52
2022/08/11 09:12:39;;;;;;;1.10;0.80;;;;;;;28.38;36.62;100723.88;4987132;28;20446;-52
2022/08/11 09:15:08;;;;;;;2.93;2.50;;;;;;;28.52;36.44;100717.94;4987059;28;20479;-53
2022/08/11 09:17:40;;;;;;;8.20;2.50;;;;;;;28.13;37.03;100714.41;4981511;28;20488;-52
2022/08/11 09:20:11;;;;;;;2.00;0.87;;;;;;;28.24;36.61;100714.22;4980767;28;20447;-52
2022/08/11 09:28:33;;;;;;;1.03;0.93;;;;;;;28.60;36.54;100715.28;4982876;28;20446;-53
2022/08/11 09:31:00;;;;;;;1.20;1.10;;;;;;;28.40;36.04;100710.91;4984840;28;20450;-53
2022/08/11 09:33:29;;;;;;;1.90;1.30;;;;;;;28.29;35.95;100719.28;4980372;28;20466;-53
2022/08/11 09:35:57;;;;;;;5.40;1.23;;;;;;;28.52;36.33;100717.94;4982029;28;20484;-53
2022/08/11 09:41:15;;;;;;;1.00;0.90;;;;;;;28.59;35.15;100721.78;4986815;28;20447;-53
2022/08/11 09:46:31;;;;;;;1.27;0.90;;;;;;;28.38;35.89;100723.88;4979788;28;20437;-53
2022/08/11 09:49:00;;;;;;;1.47;1.23;;;;;;;28.62;36.10;100717.88;4982897;28;20442;-53
2022/08/11 09:51:31;;;;;;;1.23;0.97;;;;;;;28.60;36.10;100715.28;4986326;28;20522;-53
2022/08/11 09:54:05;;;;;;;10.43;1.10;;;;;;;28.75;35.72;100720.28;4980862;28;20466;-53
2022/08/11 09:59:20;;;;;;;7.60;1.20;;;;;;;29.03;35.85;100712.97;4988859;28;20457;-54
2022/08/11 10:01:58;;;;;;;2.17;1.37;;;;;;;29.12;35.24;100703.84;4980106;28;20468;-53
2022/08/11 10:04:33;;;;;;;0.80;0.80;;;;;;;28.99;35.19;100717.03;4977232;28;20497;-53
2022/08/11 10:07:05;;;;;;;1.47;1.30;;;;;;;28.93;35.00;100703.97;4979646;28;20450;-53
2022/08/11 10:09:41;;;;;;;1.53;1.40;;;;;;;29.07;34.63;100706.19;4985035;28;20537;-53
2022/08/11 10:12:16;;;;;;;4.37;1.53;;;;;;;29.13;34.45;100702.81;4984344;28;20445;-53
2022/08/11 10:17:35;;;;;;;1.10;1.00;;;;;;;29.56;33.53;100699.38;4980492;28;20446;-54
2022/08/11 10:20:06;;;;;;;2.13;1.30;;;;;;;29.38;31.42;100693.00;4979788;28;20955;-54
2022/08/11 10:28:08;;;;;;;1.80;1.17;;;;;;;29.52;31.86;100705.34;4992461;28;20830;-53
2022/08/11 10:33:59;;;;;;;1.10;1.00;;;;;;;28.97;31.44;100698.03;4979832;28;20488;-53
2022/08/11 10:36:49;;;;;;;3.70;0.90;;;;;;;29.38;30.15;100679.31;4979391;28;20454;-54
2022/08/11 10:39:20;;;;;;;1.73;1.03;;;;;;;29.22;31.85;100687.38;4980710;28;20449;-53
2022/08/11 10:44:50;;;;;;;0.83;0.77;;;;;;;29.21;32.72;100681.03;4979358;28;20512;-53
2022/08/11 10:47:33;;;;;;;1.43;0.70;;;;;;;29.44;31.47;100678.66;4981380;28;20449;-53
2022/08/11 11:01:10;;;;;;;2.00;1.00;;;;;;;29.31;32.57;100670.84;4986473;28;20438;-52
2022/08/11 11:03:37;;;;;;;1.37;1.27;;;;;;;29.41;32.84;100649.72;4983741;28;20577;-53
2022/08/11 11:06:09;;;;;;;2.10;1.13;;;;;;;29.98;32.51;100672.16;4983853;28;20847;-53
2022/08/11 11:09:00;;;;;;;11.67;1.97;;;;;;;29.47;31.92;100682.03;4987274;28;20842;-53
2022/08/11 11:20:02;;;;;;;1.77;1.67;;;;;;;29.75;32.15;100636.19;4982218;28;20537;-51
2022/08/11 11:22:39;;;;;;;1.20;1.10;;;;;;;29.83;30.76;100646.34;4987715;28;20473;-53
2022/08/11 11:25:20;;;;;;;1.00;0.87;;;;;;;29.69;30.86;100635.94;4980601;28;20497;-53
2022/08/11 11:28:04;;;;;;;4.63;1.63;;;;;;;29.70;30.64;100641.28;4996076;28;20456;-53
2022/08/11 11:30:40;;;;;;;1.33;0.70;;;;;;;29.81;30.94;100631.94;4980211;28;20537;-52
2022/08/11 11:33:41;;;;;;;1.50;1.30;;;;;;;30.00;30.05;100633.59;4987064;28;20437;-53
2022/08/11 11:36:44;;;;;;;2.23;1.10;;;;;;;29.89;30.26;100626.53;4989187;28;20844;-53
2022/08/11 11:39:11;;;;;;;0.80;0.77;;;;;;;30.12;30.21;100626.00;4984132;28;20439;-54
2022/08/11 11:41:41;;;;;;;2.60;1.00;;;;;;;30.16;29.94;100639.25;4990042;28;20958;-53
2022/08/11 11:44:11;;;;;;;0.80;0.80;;;;;;;29.53;31.32;100624.84;4987962;28;21019;-53
2022/08/11 11:46:38;;;;;;;2.20;1.10;;;;;;;29.79;30.87;100626.63;4992349;28;20456;-53
2022/08/11 11:49:08;;;;;;;8.10;1.13;;;;;;;29.73;30.70;100613.53;4988251;28;20450;-54
2022/08/11 11:51:44;;;;;;;1.50;1.33;;;;;;;30.16;30.34;100602.75;4985815;28;20481;-53
2022/08/11 11:54:16;;;;;;;3.93;1.00;;;;;;;29.90;30.97;100608.19;4982723;28;20879;-53
2022/08/11 11:56:44;;;;;;;1.23;1.13;;;;;;;29.85;31.39;100596.84;4983933;28;20486;-53
2022/08/11 12:01:58;;;;;;;6.10;1.67;;;;;;;29.67;30.84;100605.09;4983127;28;20470;-53
2022/08/11 12:04:26;;;;;;;1.40;1.20;;;;;;;29.76;31.25;100594.06;4983884;28;20937;-53
2022/08/11 12:08:08;;;;;;;0.77;0.70;;;;;;;30.17;30.69;100586.13;4982565;28;20442;-53
2022/08/11 12:09:40;;;;;;;2.40;0.80;;;;;;;29.90;30.70;100592.59;4985312;28;20442;-53
2022/08/11 12:14:53;;;;;;;5.60;1.43;;;;;;;30.33;30.84;100575.22;4983874;28;20508;-52
2022/08/11 12:17:20;;;;;;;1.00;0.90;;;;;;;30.32;30.45;100583.63;4981384;28;20915;-52
2022/08/11 12:19:48;;;;;;;1.20;1.10;;;;;;;30.06;30.49;100573.53;4980177;28;20425;-53
2022/08/11 12:27:47;;;;;;;2.00;1.30;;;;;;;30.47;30.35;100583.84;4985509;28;20442;-51
2022/08/11 12:30:14;;;;;;;1.10;1.00;;;;;;;30.58;30.23;100564.34;4983307;28;20458;-52
2022/08/11 12:32:42;;;;;;;1.60;1.50;;;;;;;30.49;30.44;100568.09;4985575;28;20458;-51
2022/08/11 12:35:10;;;;;;;1.33;1.23;;;;;;;30.74;30.18;100561.69;4985797;28;20475;-51
2022/08/11 12:37:40;;;;;;;1.23;1.13;;;;;;;30.38;29.72;100553.63;4984158;28;20866;-51
2022/08/11 12:46:08;;;;;;;1.10;1.00;;;;;;;31.04;28.43;100534.63;4981725;28;20490;-51
2022/08/11 12:54:48;;;;;;;1.47;1.37;;;;;;;30.95;28.86;100536.47;4980712;28;20461;-50
2022/08/11 13:05:39;;;;;;;1.50;1.40;;;;;;;30.96;28.76;100530.81;4983863;28;20490;-50
2022/08/11 13:08:13;;;;;;;20.63;1.30;;;;;;;30.77;28.78;100511.06;4983772;28;20501;-50
2022/08/11 13:13:25;;;;;;;1.63;1.53;;;;;;;31.36;28.34;100523.66;4986375;28;20470;-51
2022/08/11 13:16:13;;;;;;;6.93;1.37;;;;;;;31.06;28.73;100516.94;4984711;28;20802;-51
2022/08/11 13:18:41;;;;;;;2.83;1.10;;;;;;;31.25;28.54;100526.78;4987182;28;20472;-51
2022/08/11 13:21:12;;;;;;;2.00;1.90;;;;;;;30.90;28.56;100512.28;4983097;28;20464;-51
2022/08/11 13:23:48;;;;;;;1.30;1.20;;;;;;;30.99;28.43;100512.31;4981179;28;20487;-51
2022/08/11 13:26:36;;;;;;;1.13;1.03;;;;;;;31.14;28.59;100513.34;4980505;28;20454;-52
2022/08/11 13:29:23;;;;;;;1.27;1.17;;;;;;;31.18;28.38;100506.47;4983826;28;20446;-51
2022/08/11 13:31:52;;;;;;;2.27;1.37;;;;;;;31.27;27.82;100508.22;4984621;28;20942;-52
2022/08/11 13:34:21;;;;;;;2.87;1.60;;;;;;;31.10;28.12;100493.56;4981721;28;20992;-51
2022/08/11 13:36:53;;;;;;;1.07;0.97;;;;;;;31.18;28.10;100506.47;4986248;28;20552;-51
2022/08/11 13:39:22;;;;;;;1.40;1.30;;;;;;;31.28;28.00;100498.94;4982048;28;20430;-52
2022/08/11 13:41:52;;;;;;;2.03;1.37;;;;;;;31.19;27.92;100503.56;4977732;28;20441;-51
2022/08/11 13:44:19;;;;;;;1.40;1.30;;;;;;;31.12;28.01;100488.78;4982237;28;20865;-54
2022/08/11 13:47:02;;;;;;;10.20;1.70;;;;;;;31.00;28.52;100486.56;4985245;28;21324;-52
2022/08/11 13:49:31;;;;;;;0.97;0.77;;;;;;;30.99;28.41;100477.47;4993021;28;20437;-52
2022/08/11 13:51:58;;;;;;;1.90;1.80;;;;;;;31.31;27.81;100484.00;4998900;28;20458;-52
2022/08/11 13:54:28;;;;;;;1.40;1.00;;;;;;;31.50;27.67;100475.38;4979594;28;20477;-50
2022/08/11 13:56:59;;;;;;;1.70;1.60;;;;;;;31.48;27.65;100485.69;4990996;28;20544;-52
2022/08/11 13:59:27;;;;;;;1.70;1.60;;;;;;;31.14;28.16;100483.97;4986176;28;20446;-52
2022/08/11 14:02:04;;;;;;;8.93;1.47;;;;;;;31.24;28.13;100470.06;4985417;28;20516;-52
2022/08/11 14:05:01;;;;;;;1.67;1.57;;;;;;;31.16;28.06;100467.31;4991578;28;20481;-50
2022/08/11 14:07:39;;;;;;;12.90;2.00;;;;;;;31.18;27.83;100462.50;4979064;28;20833;-51
2022/08/11 14:10:10;;;;;;;9.93;1.93;;;;;;;31.38;28.00;100449.28;4977227;28;20454;-53
2022/08/11 14:15:38;;;;;;;1.47;1.37;;;;;;;31.28;28.01;100451.38;4976757;28;20537;-52
2022/08/11 14:18:29;;;;;;;3.27;2.07;;;;;;;31.47;27.75;100449.09;4982536;28;21020;-52
2022/08/11 14:23:46;;;;;;;1.20;1.10;;;;;;;31.52;27.36;100429.31;4984631;28;20475;-51
2022/08/11 14:26:27;;;;;;;1.90;0.93;;;;;;;31.59;27.33;100435.00;4991017;28;20489;-52
2022/08/11 14:29:09;;;;;;;1.27;1.17;;;;;;;31.79;27.22;100437.16;4983706;28;20445;-54
2022/08/11 14:31:39;;;;;;;7.57;1.40;;;;;;;31.48;27.12;100434.31;4982341;28;20834;-51
2022/08/11 14:34:09;;;;;;;1.30;1.20;;;;;;;31.46;27.25;100435.53;4986673;28;20474;-51
2022/08/11 14:36:38;;;;;;;7.53;1.27;;;;;;;31.26;27.38;100428.72;4989766;28;20489;-50
2022/08/11 14:39:13;;;;;;;3.13;1.20;;;;;;;31.54;27.02;100422.66;4988251;28;20453;-51
2022/08/11 14:47:31;;;;;;;1.57;1.47;;;;;;;31.86;26.96;100407.09;4982682;28;20453;-51
2022/08/11 14:50:01;;;;;;;1.40;1.30;;;;;;;31.41;26.96;100408.59;5002648;28;21079;-51
2022/08/11 14:52:59;;;;;;;1.53;1.33;;;;;;;31.62;26.91;100404.38;4998313;28;20460;-51
2022/08/11 14:58:22;;;;;;;1.20;1.10;;;;;;;31.35;26.60;100402.94;4991955;28;20455;-50
2022/08/11 15:00:54;;;;;;;1.53;1.43;;;;;;;31.33;25.92;100396.75;4982950;28;20453;-50
2022/08/11 15:03:24;;;;;;;1.20;1.10;;;;;;;31.33;26.07;100408.59;4985546;28;20470;-50
2022/08/11 15:05:57;;;;;;;1.40;1.27;;;;;;;31.30;26.48;100403.47;4989208;28;20497;-51
2022/08/11 15:08:53;;;;;;;1.00;1.00;;;;;;;31.36;26.02;100411.00;4988613;28;20445;-51
2022/08/11 15:14:11;;;;;;;18.60;1.77;;;;;;;31.70;26.20;100394.22;4989194;28;20470;-50
2022/08/11 15:19:31;;;;;;;1.10;1.10;;;;;;;31.55;26.68;100376.78;4986006;28;20632;-50
2022/08/11 15:24:59;;;;;;;1.10;1.00;;;;;;;31.39;26.89;100390.56;4987973;28;20501;-50
2022/08/11 15:38:43;;;;;;;1.47;1.37;;;;;;;31.16;27.29;100374.78;4983605;28;20450;-51
2022/08/11 15:47:13;;;;;;;8.63;1.23;;;;;;;31.53;26.78;100356.84;4987413;28;20457;-50
2022/08/11 15:49:41;;;;;;;1.67;1.57;;;;;;;31.63;26.68;100364.88;4986879;28;20452;-50
2022/08/11 15:52:33;;;;;;;3.07;1.07;;;;;;;31.27;25.67;100365.34;4999876;28;20453;-50
2022/08/11 15:55:05;;;;;;;3.43;1.73;;;;;;;31.28;25.52;100361.56;4983833;28;20544;-50
2022/08/11 16:06:13;;;;;;;2.10;1.90;;;;;;;31.45;24.68;100354.13;4982340;28;20496;-50
2022/08/11 16:08:43;;;;;;;1.70;1.13;;;;;;;31.61;24.52;100358.69;4981692;28;20461;-50
2022/08/11 16:11:11;;;;;;;5.70;1.03;;;;;;;31.59;24.79;100347.88;4987355;28;20458;-50
2022/08/11 16:16:13;;;;;;;0.90;0.80;;;;;;;31.65;24.72;100347.16;4983160;28;20450;-50
2022/08/11 16:18:46;;;;;;;1.33;1.23;;;;;;;31.65;24.99;100347.16;4981361;28;20497;-50
2022/08/11 16:21:22;;;;;;;2.30;0.90;;;;;;;31.54;24.86;100348.44;4984447;28;20450;-50
2022/08/11 16:24:02;;;;;;;1.80;1.13;;;;;;;31.51;25.06;100350.66;4988372;28;20590;-50
2022/08/11 16:26:30;;;;;;;1.40;1.30;;;;;;;31.52;24.55;100346.88;4987945;28;20489;-52
2022/08/11 16:29:18;;;;;;;1.37;1.27;;;;;;;31.45;25.33;100333.00;4975362;28;20457;-50
2022/08/11 16:32:15;;;;;;;3.23;1.13;;;;;;;31.37;24.70;100337.66;4988264;28;20450;-51
2022/08/11 16:40:08;;;;;;;1.63;1.30;;;;;;;31.23;24.73;100333.75;4981411;28;20467;-50
2022/08/11 16:48:27;;;;;;;4.40;1.17;;;;;;;31.13;24.92;100327.59;4979971;28;20810;-51
2022/08/11 16:51:09;;;;;;;1.70;1.20;;;;;;;31.04;25.20;100315.75;5007138;28;20454;-51
2022/08/11 16:53:37;;;;;;;1.57;1.47;;;;;;;31.09;25.14;100312.47;4983967;28;20545;-51
2022/08/11 16:56:31;;;;;;;1.20;1.10;;;;;;;31.08;25.33;100308.88;4981633;28;20472;-50
2022/08/11 16:59:16;;;;;;;2.00;1.03;;;;;;;31.08;25.71;100316.25;4987810;28;20449;-50